createdAt,value
2017-12-11T00:00:57.008Z,99985.84
2017-12-11T00:03:23.504Z,99975.16
2017-12-11T00:05:49.976Z,99974.12
2017-12-11T00:08:16.392Z,99976.53
2017-12-11T00:10:42.824Z,99977.36
2017-12-11T00:13:09.195Z,99979.31
2017-12-11T00:15:35.623Z,99979.31
2017-12-11T00:18:02.051Z,99985.19
2017-12-11T00:20:28.473Z,99995.20
2017-12-11T00:22:54.863Z,100004.27
2017-12-11T00:25:21.347Z,99995.77
2017-12-11T00:27:47.747Z,99996.33
2017-12-11T00:30:14.169Z,99994.20
2017-12-11T00:32:40.575Z,99997.56
2017-12-11T00:35:06.948Z,99999.67
2017-12-11T00:37:33.405Z,99999.27
2017-12-11T00:39:59.839Z,99997.53
2017-12-11T00:42:26.270Z,100003.53
2017-12-11T00:44:52.703Z,100005.66
2017-12-11T00:47:19.178Z,100001.86
2017-12-11T00:49:45.596Z,100001.49
2017-12-11T00:52:12.049Z,99992.47
2017-12-11T00:54:38.475Z,99998.16
2017-12-11T00:57:04.880Z,100002.63
2017-12-11T00:59:31.285Z,99996.31
2017-12-11T01:01:57.738Z,99994.63
2017-12-11T01:04:24.152Z,100002.60
2017-12-11T01:06:50.605Z,100006.92
2017-12-11T01:09:17.141Z,100013.52
2017-12-11T01:11:43.520Z,100009.40
2017-12-11T01:14:10.006Z,100008.66
2017-12-11T01:16:36.643Z,100006.41
2017-12-11T01:19:03.012Z,100001.56
2017-12-11T01:21:29.613Z,100002.98
2017-12-11T01:23:56.100Z,100013.00
2017-12-11T01:26:22.464Z,100010.86
2017-12-11T01:28:48.915Z,100015.66
2017-12-11T01:31:15.383Z,100026.41
2017-12-11T01:33:41.861Z,100031.58
2017-12-11T01:36:08.273Z,100039.81
2017-12-11T01:38:34.726Z,100038.19
2017-12-11T01:41:01.192Z,100032.62
2017-12-11T01:43:27.655Z,100036.57
2017-12-11T01:45:54.176Z,100028.30
2017-12-11T01:48:20.644Z,100027.88
2017-12-11T01:50:47.122Z,100013.72
2017-12-11T01:53:13.628Z,100026.38
2017-12-11T01:55:40.012Z,100015.48
2017-12-11T01:58:06.496Z,100022.23
2017-12-11T02:00:32.955Z,100023.80
2017-12-11T02:02:59.372Z,100017.41
2017-12-11T02:05:25.752Z,100010.90
2017-12-11T02:07:52.167Z,100017.32
2017-12-11T02:10:18.585Z,100020.20
2017-12-11T02:12:45.000Z,100022.69
2017-12-11T02:15:11.485Z,100018.25
2017-12-11T02:17:37.924Z,100001.73
2017-12-11T02:20:04.373Z,99996.12
2017-12-11T02:22:30.861Z,99987.11
2017-12-11T02:24:57.316Z,99997.48
2017-12-11T02:27:23.900Z,99985.72
2017-12-11T02:29:50.391Z,99978.28
2017-12-11T02:32:16.833Z,99970.98
2017-12-11T02:34:43.295Z,99969.72
2017-12-11T02:37:09.812Z,99973.12
2017-12-11T02:39:36.281Z,99972.63
2017-12-11T02:42:02.724Z,99977.33
2017-12-11T02:44:29.242Z,99975.63
2017-12-11T02:46:55.684Z,99972.22
2017-12-11T02:49:22.236Z,99970.52
2017-12-11T02:51:48.774Z,99978.69
2017-12-11T02:54:15.205Z,99986.02
2017-12-11T02:56:41.616Z,99984.25
2017-12-11T02:59:08.048Z,99988.75
2017-12-11T03:01:34.456Z,99984.92
2017-12-11T03:04:00.856Z,99990.19
2017-12-11T03:06:27.337Z,99993.74
2017-12-11T03:08:53.733Z,99989.81
2017-12-11T03:11:20.320Z,99999.31
2017-12-11T03:13:46.772Z,100003.66
2017-12-11T03:16:13.180Z,100000.69
2017-12-11T03:18:39.578Z,99984.66
2017-12-11T03:21:06.321Z,99989.09
2017-12-11T03:23:32.858Z,99985.72
2017-12-11T03:25:59.281Z,99985.31
2017-12-11T03:28:25.685Z,99996.09
2017-12-11T03:30:52.114Z,99997.34
2017-12-11T03:33:18.552Z,99999.93
2017-12-11T03:35:45.043Z,100006.47
2017-12-11T03:38:11.461Z,100002.20
2017-12-11T03:40:37.843Z,100006.95
2017-12-11T03:43:04.289Z,100025.19
2017-12-11T03:45:30.711Z,100022.11
2017-12-11T03:47:57.126Z,100024.27
2017-12-11T03:50:23.613Z,100019.55
2017-12-11T03:52:50.061Z,100018.24
2017-12-11T03:55:16.431Z,100020.33
2017-12-11T03:57:42.827Z,100010.28
2017-12-11T04:00:09.381Z,100002.47
2017-12-11T04:02:35.883Z,100006.39
2017-12-11T04:05:02.308Z,100007.72
2017-12-11T04:07:28.877Z,100003.36
2017-12-11T04:09:55.247Z,100006.31
2017-12-11T04:12:21.728Z,100002.71
2017-12-11T04:14:48.192Z,100010.04
2017-12-11T04:17:14.693Z,100003.47
2017-12-11T04:19:41.186Z,100011.59
2017-12-11T04:22:07.549Z,100017.66
2017-12-11T04:24:33.946Z,100019.64
2017-12-11T04:27:00.337Z,100014.23
2017-12-11T04:29:26.727Z,100022.25
2017-12-11T04:31:53.175Z,100012.48
2017-12-11T04:34:19.682Z,100008.16
2017-12-11T04:36:46.045Z,100000.82
2017-12-11T04:39:12.428Z,100001.70
2017-12-11T04:41:39.086Z,99998.00
2017-12-11T04:44:05.451Z,100000.14
2017-12-11T04:46:31.932Z,100000.09
2017-12-11T04:48:58.355Z,100007.36
2017-12-11T04:51:24.783Z,100013.50
2017-12-11T04:53:51.149Z,100009.07
2017-12-11T04:56:17.625Z,100006.37
2017-12-11T04:58:43.966Z,100011.53
2017-12-11T05:01:10.449Z,100020.20
2017-12-11T05:03:36.848Z,100016.49
2017-12-11T05:06:03.372Z,100006.16
2017-12-11T05:08:29.776Z,100008.28
2017-12-11T05:10:56.351Z,100006.98
2017-12-11T05:13:22.823Z,99999.11
2017-12-11T05:15:49.180Z,100002.50
2017-12-11T05:18:15.788Z,100004.55
2017-12-11T05:20:42.210Z,100012.41
2017-12-11T05:23:08.605Z,100008.03
2017-12-11T05:25:35.091Z,100014.03
2017-12-11T05:28:01.496Z,100007.78
2017-12-11T05:30:27.956Z,100003.47
2017-12-11T05:32:54.424Z,100007.81
2017-12-11T05:35:20.877Z,100022.83
2017-12-11T05:37:47.359Z,100027.94
2017-12-11T05:40:13.825Z,100026.57
2017-12-11T05:42:40.269Z,100025.25
2017-12-11T05:45:06.636Z,100039.05
2017-12-11T05:47:33.074Z,100025.54
2017-12-11T05:49:59.525Z,100031.33
2017-12-11T05:52:25.920Z,100025.45
2017-12-11T05:54:52.358Z,100025.51
2017-12-11T05:57:18.720Z,100029.81
2017-12-11T05:59:45.238Z,100036.23
2017-12-11T06:02:12.204Z,100034.97
2017-12-11T06:04:38.578Z,100040.16
2017-12-11T06:07:04.980Z,100045.27
2017-12-11T06:09:31.436Z,100042.22
2017-12-11T06:11:58.069Z,100036.98
2017-12-11T06:14:24.442Z,100030.13
2017-12-11T06:16:50.876Z,100032.29
2017-12-11T06:19:17.234Z,100038.36
2017-12-11T06:21:43.617Z,100037.85
2017-12-11T06:24:10.028Z,100041.71
2017-12-11T06:26:36.410Z,100038.68
2017-12-11T06:29:02.780Z,100042.65
2017-12-11T06:31:29.218Z,100048.67
2017-12-11T06:33:55.580Z,100051.63
2017-12-11T06:36:21.972Z,100058.03
2017-12-11T06:38:48.495Z,100052.27
2017-12-11T06:41:14.844Z,100055.62
2017-12-11T06:43:41.210Z,100053.36
2017-12-11T06:46:07.623Z,100053.74
2017-12-11T06:48:34.036Z,100058.06
2017-12-11T06:51:00.475Z,100053.38
2017-12-11T06:53:26.982Z,100061.09
2017-12-11T06:55:53.399Z,100060.06
2017-12-11T06:58:19.892Z,100057.79
2017-12-11T07:00:46.308Z,100059.90
2017-12-11T07:03:12.674Z,100058.59
2017-12-11T07:05:39.058Z,100062.06
2017-12-11T07:08:05.470Z,100069.88
2017-12-11T07:10:31.856Z,100068.47
2017-12-11T07:12:58.394Z,100076.17
2017-12-11T07:15:24.771Z,100086.16
2017-12-11T07:17:51.238Z,100081.45
2017-12-11T07:20:17.647Z,100086.19
2017-12-11T07:22:44.144Z,100080.01
2017-12-11T07:25:10.933Z,100074.50
2017-12-11T07:27:37.472Z,100065.30
2017-12-11T07:30:04.056Z,100064.44
2017-12-11T07:32:30.824Z,100053.97
2017-12-11T07:34:57.381Z,100049.06
2017-12-11T07:37:23.857Z,100051.41
2017-12-11T07:39:50.555Z,100048.66
2017-12-11T07:42:17.364Z,100054.89
2017-12-11T07:44:44.042Z,100066.67
2017-12-11T07:47:10.471Z,100056.83
2017-12-11T07:49:36.885Z,100054.45
2017-12-11T07:52:03.409Z,100062.56
2017-12-11T07:54:29.801Z,100062.38
2017-12-11T07:56:56.175Z,100058.05
2017-12-11T07:59:22.596Z,100058.91
2017-12-11T08:01:49.012Z,100062.38
2017-12-11T08:04:15.477Z,100057.56
2017-12-11T08:06:41.920Z,100069.32
2017-12-11T08:09:08.473Z,100063.02
2017-12-11T08:11:34.998Z,100063.34
2017-12-11T08:14:01.420Z,100068.93
2017-12-11T08:16:27.848Z,100058.94
2017-12-11T08:18:54.244Z,100054.59
2017-12-11T08:21:20.620Z,100058.55
2017-12-11T08:23:46.964Z,100050.97
2017-12-11T08:26:13.353Z,100050.19
2017-12-11T08:28:39.837Z,100052.58
2017-12-11T08:31:06.220Z,100050.09
2017-12-11T08:33:32.584Z,100049.59
2017-12-11T08:35:58.972Z,100046.59
2017-12-11T08:38:25.323Z,100050.64
2017-12-11T09:18:11.796Z,100036.95
2017-12-11T09:20:38.218Z,100016.23
2017-12-11T09:23:04.558Z,100009.68
2017-12-11T09:25:30.927Z,100019.17
2017-12-11T09:27:57.275Z,100017.14
2017-12-11T09:30:23.877Z,100013.34
2017-12-11T09:32:50.263Z,100016.27
2017-12-11T09:35:16.585Z,100013.45
2017-12-11T09:37:42.912Z,100008.05
2017-12-11T09:40:09.407Z,100008.48
2017-12-11T09:42:35.817Z,100015.97
2017-12-11T09:45:02.165Z,100015.92
2017-12-11T09:47:28.625Z,100015.55
2017-12-11T09:49:55.025Z,100010.23
2017-12-11T09:52:21.400Z,99992.17
2017-12-11T09:54:48.052Z,100006.45
2017-12-11T09:57:14.641Z,100003.78
2017-12-11T09:59:41.160Z,100005.07
2017-12-11T10:02:07.604Z,99995.55
2017-12-11T10:04:33.997Z,99992.06
2017-12-11T10:07:00.373Z,99978.26
2017-12-11T10:09:26.788Z,99978.67
2017-12-11T10:11:53.132Z,99978.79
2017-12-11T10:14:19.509Z,99970.80
2017-12-11T10:16:45.924Z,99971.75
2017-12-11T10:19:12.411Z,99971.44
2017-12-11T10:21:38.771Z,99968.81
2017-12-11T10:24:05.161Z,99965.46
2017-12-11T10:26:31.607Z,99962.58
2017-12-11T10:28:57.937Z,99960.48
2017-12-11T10:31:24.366Z,99953.27
2017-12-11T10:36:47.568Z,99953.03
2017-12-11T10:39:13.991Z,99953.22
2017-12-11T10:41:40.474Z,99942.38
2017-12-11T10:44:06.832Z,99932.69
2017-12-11T10:46:33.281Z,99932.46
2017-12-11T10:48:59.599Z,99927.82
2017-12-11T10:51:25.981Z,99917.20
2017-12-11T10:53:52.308Z,99914.20
2017-12-11T10:56:18.808Z,99903.80
2017-12-11T10:58:45.251Z,99899.95
2017-12-11T11:01:11.572Z,99892.39
2017-12-11T11:03:37.912Z,99878.23
2017-12-11T11:06:04.336Z,99884.19
2017-12-11T11:08:30.683Z,99883.58
2017-12-11T11:10:57.077Z,99871.12
2017-12-11T11:13:23.500Z,99874.77
2017-12-11T11:15:49.831Z,99876.23
2017-12-11T11:18:16.231Z,99863.90
2017-12-11T11:20:42.658Z,99862.03
2017-12-11T11:23:08.979Z,99856.33
2017-12-11T11:25:35.323Z,99847.11
2017-12-11T11:28:01.703Z,99846.66
2017-12-11T11:30:28.053Z,99847.67
2017-12-11T11:32:54.420Z,99843.61
2017-12-11T11:35:20.808Z,99851.66
2017-12-11T11:37:47.253Z,99845.42
2017-12-11T11:40:13.589Z,99840.01
2017-12-11T11:42:39.963Z,99834.61
2017-12-11T11:45:06.508Z,99829.66
2017-12-11T11:47:33.090Z,99831.63
2017-12-11T11:49:59.528Z,99833.84
2017-12-11T11:52:25.955Z,99820.77
2017-12-11T11:54:52.423Z,99829.58
2017-12-11T11:57:18.896Z,99825.98
2017-12-11T11:59:45.297Z,99811.92
2017-12-11T12:02:11.704Z,99817.72
2017-12-11T12:04:38.254Z,99824.18
2017-12-11T12:07:04.640Z,99816.47
2017-12-11T12:09:31.004Z,99816.88
2017-12-11T12:11:57.427Z,99815.15
2017-12-11T12:14:23.824Z,99814.41
2017-12-11T12:16:50.529Z,99813.50
2017-12-11T12:19:17.263Z,99810.77
2017-12-11T12:21:43.647Z,99819.20
2017-12-11T12:24:10.176Z,99812.37
2017-12-11T12:26:36.595Z,99813.23
2017-12-11T12:29:02.951Z,99812.47
2017-12-11T12:31:29.325Z,99805.86
2017-12-11T12:33:55.715Z,99807.01
2017-12-11T12:36:22.058Z,99809.92
2017-12-11T12:38:48.411Z,99802.00
2017-12-11T12:41:15.361Z,99800.41
2017-12-11T12:43:41.708Z,99796.38
2017-12-11T12:46:08.032Z,99805.88
2017-12-11T12:48:34.635Z,99796.45
2017-12-11T12:51:01.960Z,99803.17
2017-12-11T12:53:28.287Z,99814.19
2017-12-11T12:55:54.679Z,99808.03
2017-12-11T12:58:21.040Z,99804.26
2017-12-11T13:00:47.363Z,99805.59
2017-12-11T13:03:13.768Z,99805.25
2017-12-11T13:05:40.096Z,99807.08
2017-12-11T13:08:06.673Z,99807.06
2017-12-11T13:10:33.071Z,99811.16
2017-12-11T13:12:59.515Z,99812.73
2017-12-11T13:15:25.915Z,99819.30
2017-12-11T13:17:52.316Z,99830.16
2017-12-11T13:20:18.716Z,99830.25
2017-12-11T13:22:45.084Z,99830.16
2017-12-11T13:25:13.183Z,99835.16
2017-12-11T13:27:39.718Z,99833.26
2017-12-11T13:30:06.050Z,99835.81
2017-12-11T13:32:32.471Z,99843.19
2017-12-11T13:34:58.800Z,99862.69
2017-12-11T13:37:25.144Z,99873.26
2017-12-11T13:39:51.516Z,99855.53
2017-12-11T13:42:18.082Z,99871.94
2017-12-11T13:44:44.454Z,99858.85
2017-12-11T13:47:10.812Z,99858.98
2017-12-11T13:49:37.140Z,99862.28
2017-12-11T13:52:03.476Z,99859.41
2017-12-11T13:54:29.877Z,99869.78
2017-12-11T13:56:56.203Z,99873.88
2017-12-11T13:59:22.552Z,99869.93
2017-12-11T14:01:49.265Z,99876.14
2017-12-11T14:04:15.602Z,99875.33
2017-12-11T14:06:41.968Z,99886.86
2017-12-11T14:09:08.342Z,99888.56
2017-12-11T14:11:34.800Z,99883.70
2017-12-11T14:14:01.234Z,99886.33
2017-12-11T14:16:27.596Z,99899.12
2017-12-11T14:18:53.928Z,99892.62
2017-12-11T14:21:20.262Z,99893.39
2017-12-11T14:23:46.761Z,99892.62
2017-12-11T14:26:13.348Z,99898.97
2017-12-11T14:28:39.704Z,99898.97
2017-12-11T14:31:06.272Z,99895.59
2017-12-11T14:33:32.620Z,99911.09
2017-12-11T14:35:58.964Z,99910.77
2017-12-11T14:38:25.497Z,99923.55
2017-12-11T14:40:51.879Z,99926.02
2017-12-11T14:43:18.228Z,99933.34
2017-12-11T14:45:44.691Z,99946.66
2017-12-11T14:48:11.100Z,99932.30
2017-12-11T14:50:37.424Z,99942.89
2017-12-11T14:53:03.832Z,99932.52
2017-12-11T14:55:30.189Z,99938.11
2017-12-11T14:57:59.444Z,99943.12
2017-12-11T15:00:28.005Z,99948.63
2017-12-11T15:02:54.364Z,99935.52
2017-12-11T15:05:20.752Z,99946.84
2017-12-11T15:07:47.876Z,99947.63
2017-12-11T15:10:16.060Z,99952.06
2017-12-11T15:12:42.572Z,99949.13
2017-12-11T15:15:09.168Z,99953.30
2017-12-11T15:17:35.666Z,99956.88
2017-12-11T15:20:02.048Z,99952.05
2017-12-11T15:22:28.569Z,99965.48
2017-12-11T15:24:54.932Z,99961.90
2017-12-11T15:27:21.273Z,99959.66
2017-12-11T15:29:47.888Z,99954.40
2017-12-11T15:32:14.244Z,99964.52
2017-12-11T15:34:40.577Z,99966.94
2017-12-11T15:37:06.988Z,99965.91
2017-12-11T15:39:33.432Z,99975.35
2017-12-11T15:41:59.805Z,99968.59
2017-12-11T15:44:26.233Z,99978.28
2017-12-11T15:46:52.619Z,99981.70
2017-12-11T15:49:18.972Z,99979.60
2017-12-11T15:51:45.392Z,99978.51
2017-12-11T15:54:11.773Z,99988.19
2017-12-11T15:56:38.431Z,99991.31
2017-12-11T15:59:04.884Z,99993.20
2017-12-11T16:01:31.268Z,99993.98
2017-12-11T16:03:57.748Z,99984.34
2017-12-11T16:06:24.176Z,99998.61
2017-12-11T16:08:50.568Z,99991.59
2017-12-11T16:11:16.968Z,100000.17
2017-12-11T16:13:43.427Z,99999.28
2017-12-11T16:16:09.812Z,99999.38
2017-12-11T16:18:36.190Z,99989.72
2017-12-11T16:21:03.394Z,99993.58
2017-12-11T16:23:30.664Z,99997.02
2017-12-11T16:25:57.333Z,100005.30
2017-12-11T16:28:23.753Z,100002.75
2017-12-11T16:30:50.119Z,100010.30
2017-12-11T16:33:17.744Z,100006.39
2017-12-11T16:35:45.522Z,100014.22
2017-12-11T16:38:13.721Z,99997.30
2017-12-11T16:40:40.105Z,100018.45
2017-12-11T16:43:06.548Z,99997.09
2017-12-11T16:45:32.998Z,100001.28
2017-12-11T16:47:59.368Z,100013.44
2017-12-11T16:50:25.788Z,100000.30
2017-12-11T16:52:52.172Z,100020.10
2017-12-11T16:55:18.577Z,100014.02
2017-12-11T16:57:45.028Z,100015.05
2017-12-11T17:00:11.452Z,100012.34
2017-12-11T17:02:37.860Z,100012.20
2017-12-11T17:05:04.363Z,100022.78
2017-12-11T17:07:30.901Z,100016.84
2017-12-11T17:09:57.230Z,100007.89
2017-12-11T17:12:23.636Z,100016.77
2017-12-11T17:14:49.968Z,100020.11
2017-12-11T17:17:16.284Z,100023.90
2017-12-11T17:19:42.715Z,100029.12
2017-12-11T17:22:09.057Z,100028.02
2017-12-11T17:24:35.381Z,100037.26
2017-12-11T17:27:01.759Z,100037.03
2017-12-11T17:29:28.132Z,100037.21
2017-12-11T17:31:54.493Z,100024.82
2017-12-11T17:34:20.876Z,100026.50
2017-12-11T17:36:47.278Z,100017.27
2017-12-11T17:39:13.683Z,100031.05
2017-12-11T17:41:40.096Z,100037.93
2017-12-11T17:44:06.579Z,100052.73
2017-12-11T17:46:32.988Z,100050.56
2017-12-11T17:48:59.392Z,100047.41
2017-12-11T17:51:25.989Z,100052.51
2017-12-11T17:53:52.393Z,100040.20
2017-12-11T17:56:18.903Z,100041.64
2017-12-11T17:58:47.192Z,100050.75
2017-12-11T18:01:13.555Z,100035.98
2017-12-11T18:03:39.944Z,100030.37
2017-12-11T18:06:06.335Z,100022.23
2017-12-11T18:08:32.668Z,100024.56
2017-12-11T18:10:59.061Z,100032.45
2017-12-11T18:13:25.400Z,100026.77
2017-12-11T18:15:51.784Z,100022.98
2017-12-11T18:18:18.160Z,100031.51
2017-12-11T18:20:44.588Z,100030.58
2017-12-11T18:23:10.963Z,100035.50
2017-12-11T18:25:37.354Z,100030.20
2017-12-11T18:28:03.683Z,100020.19
2017-12-11T18:30:30.017Z,100020.94
2017-12-11T18:32:56.675Z,100010.51
2017-12-11T18:35:23.011Z,100014.62
2017-12-11T18:37:49.381Z,100015.11
2017-12-11T18:40:15.796Z,100012.50
2017-12-11T18:42:42.307Z,100017.77
2017-12-11T18:45:08.656Z,100015.16
2017-12-11T18:47:35.359Z,100021.99
2017-12-11T18:50:01.789Z,100015.17
2017-12-11T18:52:28.116Z,100020.56
2017-12-11T18:54:54.500Z,100014.63
2017-12-11T18:57:20.852Z,100022.13
2017-12-11T18:59:47.216Z,100012.44
2017-12-11T19:02:13.776Z,100013.55
2017-12-11T19:04:40.132Z,100007.27
2017-12-11T19:07:06.513Z,100010.44
2017-12-11T19:09:32.896Z,100007.30
2017-12-11T19:11:59.223Z,100014.75
2017-12-11T19:14:25.595Z,100012.10
2017-12-11T19:16:52.080Z,100010.48
2017-12-11T19:19:18.443Z,100014.50
2017-12-11T19:21:44.827Z,100005.91
2017-12-11T19:24:11.239Z,100003.69
2017-12-11T19:26:37.697Z,99992.94
2017-12-11T19:29:04.172Z,99985.98
2017-12-11T19:31:30.622Z,99987.89
2017-12-11T19:33:56.978Z,99988.11
2017-12-11T19:36:23.396Z,99989.62
2017-12-11T19:38:49.864Z,100001.08
2017-12-11T19:41:16.208Z,99995.33
2017-12-11T19:43:42.572Z,99997.00
2017-12-11T19:46:09.032Z,99991.26
2017-12-11T19:48:35.367Z,99996.09
2017-12-11T19:51:01.720Z,99996.24
2017-12-11T19:53:28.153Z,99993.74
2017-12-11T19:55:54.515Z,99997.38
2017-12-11T19:58:20.852Z,99998.55
2017-12-11T20:00:47.229Z,100000.87
2017-12-11T20:03:13.595Z,99996.53
2017-12-11T20:05:39.916Z,99996.11
2017-12-11T20:08:06.328Z,100002.75
2017-12-11T20:10:32.676Z,100004.40
2017-12-11T20:12:59.036Z,100002.38
2017-12-11T20:15:25.420Z,99996.73
2017-12-11T20:17:51.743Z,99994.60
2017-12-11T20:20:18.071Z,99996.05
2017-12-11T20:22:44.450Z,99985.34
2017-12-11T20:25:10.780Z,99989.34
2017-12-11T20:27:37.112Z,99987.08
2017-12-11T20:30:03.484Z,99993.69
2017-12-11T20:32:29.815Z,99997.50
2017-12-11T20:34:56.148Z,99999.23
2017-12-11T20:37:22.627Z,100005.84
2017-12-11T20:39:48.976Z,100013.31
2017-12-11T20:42:15.312Z,100014.52
2017-12-11T20:44:41.687Z,100010.23
2017-12-11T20:47:08.013Z,100008.50
2017-12-11T20:49:34.346Z,100009.65
2017-12-11T20:52:00.716Z,100013.60
2017-12-11T20:54:27.024Z,100014.34
2017-12-11T20:56:53.355Z,100011.71
2017-12-11T20:59:19.731Z,100015.61
2017-12-11T21:01:46.112Z,100013.36
2017-12-11T21:04:12.536Z,100013.83
2017-12-11T21:06:38.924Z,100016.92
2017-12-11T21:09:05.313Z,100017.22
2017-12-11T21:11:31.700Z,100019.05
2017-12-11T21:13:58.118Z,100016.48
2017-12-11T21:16:24.681Z,100027.20
2017-12-11T21:18:51.120Z,100024.63
2017-12-11T21:21:17.525Z,100023.95
2017-12-11T21:23:43.881Z,100028.20
2017-12-11T21:26:10.239Z,100024.59
2017-12-11T21:28:36.631Z,100030.93
2017-12-11T21:31:03.001Z,100024.98
2017-12-11T21:33:29.459Z,100032.14
2017-12-11T21:35:55.824Z,100038.33
2017-12-11T21:38:22.196Z,100022.45
2017-12-11T21:40:48.554Z,100041.38
2017-12-11T21:43:14.948Z,100035.14
2017-12-11T21:45:41.340Z,100040.15
2017-12-11T21:48:07.676Z,100031.36
2017-12-11T21:50:34.118Z,100035.73
2017-12-11T21:53:00.501Z,100039.95
2017-12-11T21:55:26.912Z,100035.05
2017-12-11T21:57:53.363Z,100040.34
2017-12-11T22:00:19.743Z,100044.72
2017-12-11T22:02:46.120Z,100039.16
2017-12-11T22:05:12.584Z,100035.79
2017-12-11T22:07:38.981Z,100036.91
2017-12-11T22:10:05.352Z,100031.45
2017-12-11T22:12:31.880Z,100036.61
2017-12-11T22:14:58.241Z,100045.33
2017-12-11T22:17:24.621Z,100045.67
2017-12-11T22:19:51.044Z,100044.69
2017-12-11T22:22:17.416Z,100046.98
2017-12-11T22:24:43.839Z,100043.98
2017-12-11T22:27:10.231Z,100043.72
2017-12-11T22:29:36.570Z,100043.84
2017-12-11T22:32:02.940Z,100032.88
2017-12-11T22:34:29.354Z,100035.84
2017-12-11T22:36:55.715Z,100042.16
2017-12-11T22:39:22.112Z,100029.34
2017-12-11T22:41:48.497Z,100040.11
2017-12-11T22:44:14.868Z,100025.23
2017-12-11T22:46:41.308Z,100032.13
2017-12-11T22:49:07.713Z,100021.94
2017-12-11T22:51:34.197Z,100031.47
2017-12-11T22:54:00.576Z,100030.19
2017-12-11T22:56:27.012Z,100024.59
2017-12-11T22:58:53.379Z,100025.16
2017-12-11T23:01:19.760Z,100028.28
2017-12-11T23:03:46.212Z,100033.60
2017-12-11T23:06:12.552Z,100040.69
2017-12-11T23:08:38.888Z,100029.45
2017-12-11T23:11:05.267Z,100032.23
2017-12-11T23:13:31.612Z,100020.20
2017-12-11T23:15:57.998Z,100021.89
2017-12-11T23:18:24.399Z,100026.23
2017-12-11T23:20:50.755Z,100029.27
2017-12-11T23:23:17.088Z,100026.36
2017-12-11T23:25:43.546Z,100019.42
2017-12-11T23:28:09.951Z,100025.05
2017-12-11T23:30:36.336Z,100026.87
2017-12-11T23:33:02.748Z,100028.68
2017-12-11T23:35:29.051Z,100030.88
2017-12-11T23:37:55.382Z,100030.30
2017-12-11T23:40:21.760Z,100026.39
2017-12-11T23:42:48.093Z,100027.85
2017-12-11T23:45:14.437Z,100032.70
2017-12-11T23:47:40.809Z,100030.64
2017-12-11T23:50:07.139Z,100036.28
2017-12-11T23:52:33.460Z,100031.08
2017-12-11T23:54:59.926Z,100025.59
2017-12-11T23:57:26.235Z,100034.55
2017-12-11T23:59:52.560Z,100030.17
